sensor_id;sensor_type;location;lat;lon;timestamp;pressure;altitude;pressure_sealevel;temperature;humidity
31195;BME280;17819;36.316;-93.164;2022-10-16T00:00:07;114490.28;;;-146.31;48.11
31195;BME280;17819;36.316;-93.164;2022-10-16T00:02:11;114490.28;;;-146.31;47.20
31195;BME280;17819;36.316;-93.164;2022-10-16T00:04:15;114490.28;;;-146.31;47.55
31195;BME280;17819;36.316;-93.164;2022-10-16T00:06:20;114490.28;;;-146.31;47.37
31195;BME280;17819;36.316;-93.164;2022-10-16T00:08:24;114490.28;;;-146.31;47.52
31195;BME280;17819;36.316;-93.164;2022-10-16T00:10:28;114490.28;;;-146.31;47.45
31195;BME280;17819;36.316;-93.164;2022-10-16T00:12:32;114490.28;;;-146.31;47.53
31195;BME280;17819;36.316;-93.164;2022-10-16T00:14:36;114490.28;;;-146.31;48.44
31195;BME280;17819;36.316;-93.164;2022-10-16T00:16:40;114490.28;;;-146.31;47.63
31195;BME280;17819;36.316;-93.164;2022-10-16T00:18:44;114490.28;;;-146.31;48.22
31195;BME280;17819;36.316;-93.164;2022-10-16T00:20:50;114490.28;;;-146.31;48.63
31195;BME280;17819;36.316;-93.164;2022-10-16T00:22:54;114490.28;;;-146.31;48.46
31195;BME280;17819;36.316;-93.164;2022-10-16T00:24:58;114490.28;;;-146.31;48.59
31195;BME280;17819;36.316;-93.164;2022-10-16T00:27:01;114490.28;;;-146.31;49.41
31195;BME280;17819;36.316;-93.164;2022-10-16T00:29:05;114490.28;;;-146.31;49.01
31195;BME280;17819;36.316;-93.164;2022-10-16T00:31:10;114490.28;;;-146.31;49.21
31195;BME280;17819;36.316;-93.164;2022-10-16T00:33:14;114490.28;;;-146.31;49.68
31195;BME280;17819;36.316;-93.164;2022-10-16T00:35:17;114490.28;;;-146.31;49.52
31195;BME280;17819;36.316;-93.164;2022-10-16T00:37:21;114490.28;;;-146.31;49.40
31195;BME280;17819;36.316;-93.164;2022-10-16T00:39:24;114490.28;;;-146.31;49.80
31195;BME280;17819;36.316;-93.164;2022-10-16T00:41:28;114490.28;;;-146.31;50.03
31195;BME280;17819;36.316;-93.164;2022-10-16T00:45:45;114490.28;;;-146.31;50.21
31195;BME280;17819;36.316;-93.164;2022-10-16T00:47:49;114490.28;;;-146.31;49.85
31195;BME280;17819;36.316;-93.164;2022-10-16T00:50:28;114490.28;;;-146.31;49.60
31195;BME280;17819;36.316;-93.164;2022-10-16T00:52:24;114490.28;;;-146.31;49.66
31195;BME280;17819;36.316;-93.164;2022-10-16T00:54:30;114490.28;;;-146.31;49.28
31195;BME280;17819;36.316;-93.164;2022-10-16T00:56:34;114490.28;;;-146.31;50.11
31195;BME280;17819;36.316;-93.164;2022-10-16T00:58:37;114490.28;;;-146.31;51.23
31195;BME280;17819;36.316;-93.164;2022-10-16T01:00:41;114490.28;;;-146.31;50.67
31195;BME280;17819;36.316;-93.164;2022-10-16T01:02:54;114490.28;;;-146.31;51.38
31195;BME280;17819;36.316;-93.164;2022-10-16T01:04:59;114490.28;;;-146.31;51.83
31195;BME280;17819;36.316;-93.164;2022-10-16T01:09:33;114490.28;;;-146.31;52.33
31195;BME280;17819;36.316;-93.164;2022-10-16T01:16:32;114490.28;;;-146.31;51.80
31195;BME280;17819;36.316;-93.164;2022-10-16T01:27:55;114490.28;;;-146.31;52.74
31195;BME280;17819;36.316;-93.164;2022-10-16T01:32:52;114490.28;;;-146.31;53.51
31195;BME280;17819;36.316;-93.164;2022-10-16T01:37:22;114490.28;;;-146.31;54.52
31195;BME280;17819;36.316;-93.164;2022-10-16T01:39:30;114490.28;;;-146.31;54.85
31195;BME280;17819;36.316;-93.164;2022-10-16T01:41:36;114490.28;;;-146.31;55.17
31195;BME280;17819;36.316;-93.164;2022-10-16T01:44:03;114490.28;;;-146.31;55.64
31195;BME280;17819;36.316;-93.164;2022-10-16T01:46:05;114490.28;;;-146.31;57.14
31195;BME280;17819;36.316;-93.164;2022-10-16T01:48:11;114490.28;;;-146.31;57.62
31195;BME280;17819;36.316;-93.164;2022-10-16T01:50:16;114490.28;;;-146.31;57.63
31195;BME280;17819;36.316;-93.164;2022-10-16T01:52:22;114490.28;;;-146.31;57.80
31195;BME280;17819;36.316;-93.164;2022-10-16T01:54:27;114490.28;;;-146.31;57.60
31195;BME280;17819;36.316;-93.164;2022-10-16T01:56:33;114490.28;;;-146.31;59.29
31195;BME280;17819;36.316;-93.164;2022-10-16T01:58:39;114490.28;;;-146.31;59.21
31195;BME280;17819;36.316;-93.164;2022-10-16T02:00:48;114490.28;;;-146.31;58.83
31195;BME280;17819;36.316;-93.164;2022-10-16T02:02:53;114490.28;;;-146.31;59.00
31195;BME280;17819;36.316;-93.164;2022-10-16T02:04:59;114490.28;;;-146.31;58.45
31195;BME280;17819;36.316;-93.164;2022-10-16T02:07:05;114490.28;;;-146.31;57.97
31195;BME280;17819;36.316;-93.164;2022-10-16T02:09:10;114490.28;;;-146.31;57.87
31195;BME280;17819;36.316;-93.164;2022-10-16T02:11:15;114490.28;;;-146.31;58.73
31195;BME280;17819;36.316;-93.164;2022-10-16T02:14:04;114490.28;;;-146.31;59.57
31195;BME280;17819;36.316;-93.164;2022-10-16T02:15:48;114490.28;;;-146.31;59.96
31195;BME280;17819;36.316;-93.164;2022-10-16T02:17:55;114490.28;;;-146.31;58.41
31195;BME280;17819;36.316;-93.164;2022-10-16T02:20:00;114490.28;;;-146.31;58.52
31195;BME280;17819;36.316;-93.164;2022-10-16T02:22:18;114490.28;;;-146.31;57.93
31195;BME280;17819;36.316;-93.164;2022-10-16T02:24:29;114490.28;;;-146.31;58.20
31195;BME280;17819;36.316;-93.164;2022-10-16T02:26:37;114490.28;;;-146.31;57.99
31195;BME280;17819;36.316;-93.164;2022-10-16T02:28:45;114490.28;;;-146.31;57.26
31195;BME280;17819;36.316;-93.164;2022-10-16T02:31:00;114490.28;;;-146.31;57.51
31195;BME280;17819;36.316;-93.164;2022-10-16T02:33:06;114490.28;;;-146.31;57.58
31195;BME280;17819;36.316;-93.164;2022-10-16T02:35:12;114490.28;;;-146.31;56.59
31195;BME280;17819;36.316;-93.164;2022-10-16T02:37:16;114490.28;;;-146.31;57.03
31195;BME280;17819;36.316;-93.164;2022-10-16T02:39:21;114490.28;;;-146.31;56.55
31195;BME280;17819;36.316;-93.164;2022-10-16T02:41:25;114490.28;;;-146.31;56.88
31195;BME280;17819;36.316;-93.164;2022-10-16T02:43:29;114490.28;;;-146.31;57.06
31195;BME280;17819;36.316;-93.164;2022-10-16T02:45:32;114490.28;;;-146.31;57.62
31195;BME280;17819;36.316;-93.164;2022-10-16T02:47:36;114490.28;;;-146.31;58.29
31195;BME280;17819;36.316;-93.164;2022-10-16T02:49:40;114490.28;;;-146.31;58.11
31195;BME280;17819;36.316;-93.164;2022-10-16T02:51:44;114490.28;;;-146.31;57.49
31195;BME280;17819;36.316;-93.164;2022-10-16T02:53:48;114490.28;;;-146.31;56.85
31195;BME280;17819;36.316;-93.164;2022-10-16T02:55:51;114490.28;;;-146.31;56.42
31195;BME280;17819;36.316;-93.164;2022-10-16T02:57:55;114490.28;;;-146.31;55.94
31195;BME280;17819;36.316;-93.164;2022-10-16T02:59:58;114490.28;;;-146.31;56.11
31195;BME280;17819;36.316;-93.164;2022-10-16T03:02:02;114490.28;;;-146.31;55.87
31195;BME280;17819;36.316;-93.164;2022-10-16T03:04:06;114490.28;;;-146.31;56.24
31195;BME280;17819;36.316;-93.164;2022-10-16T03:06:11;114490.28;;;-146.31;56.68
31195;BME280;17819;36.316;-93.164;2022-10-16T03:08:15;114490.28;;;-146.31;57.36
31195;BME280;17819;36.316;-93.164;2022-10-16T03:10:19;114490.28;;;-146.31;56.43
31195;BME280;17819;36.316;-93.164;2022-10-16T03:12:22;114490.28;;;-146.31;55.48
31195;BME280;17819;36.316;-93.164;2022-10-16T03:14:26;114490.28;;;-146.31;55.28
31195;BME280;17819;36.316;-93.164;2022-10-16T03:16:34;114490.28;;;-146.31;55.85
31195;BME280;17819;36.316;-93.164;2022-10-16T03:18:38;114490.28;;;-146.31;55.55
31195;BME280;17819;36.316;-93.164;2022-10-16T03:20:42;114490.28;;;-146.31;54.23
31195;BME280;17819;36.316;-93.164;2022-10-16T03:22:46;114490.28;;;-146.31;54.09
31195;BME280;17819;36.316;-93.164;2022-10-16T03:24:50;114490.28;;;-146.31;53.35
31195;BME280;17819;36.316;-93.164;2022-10-16T03:26:54;114490.28;;;-146.31;54.05
31195;BME280;17819;36.316;-93.164;2022-10-16T03:29:00;114490.28;;;-146.31;53.51
31195;BME280;17819;36.316;-93.164;2022-10-16T03:31:06;114490.28;;;-146.31;54.25
31195;BME280;17819;36.316;-93.164;2022-10-16T03:33:09;114490.28;;;-146.31;53.36
31195;BME280;17819;36.316;-93.164;2022-10-16T03:35:13;114490.28;;;-146.31;52.04
31195;BME280;17819;36.316;-93.164;2022-10-16T03:37:17;114490.28;;;-146.31;52.07
31195;BME280;17819;36.316;-93.164;2022-10-16T03:39:20;114490.28;;;-146.31;51.32
31195;BME280;17819;36.316;-93.164;2022-10-16T03:41:24;114490.28;;;-146.31;51.40
31195;BME280;17819;36.316;-93.164;2022-10-16T03:43:27;114490.28;;;-146.31;50.93
31195;BME280;17819;36.316;-93.164;2022-10-16T03:45:31;114490.28;;;-146.31;51.02
31195;BME280;17819;36.316;-93.164;2022-10-16T03:47:35;114490.28;;;-146.31;51.17
31195;BME280;17819;36.316;-93.164;2022-10-16T03:49:38;114490.28;;;-146.31;50.52
31195;BME280;17819;36.316;-93.164;2022-10-16T03:51:42;114490.28;;;-146.31;50.25
31195;BME280;17819;36.316;-93.164;2022-10-16T03:53:45;114490.28;;;-146.31;50.19
31195;BME280;17819;36.316;-93.164;2022-10-16T03:55:49;114490.28;;;-146.31;49.61
31195;BME280;17819;36.316;-93.164;2022-10-16T03:57:52;114490.28;;;-146.31;49.45
31195;BME280;17819;36.316;-93.164;2022-10-16T03:59:56;114490.28;;;-146.31;49.15
31195;BME280;17819;36.316;-93.164;2022-10-16T04:01:59;114490.28;;;-146.31;49.15
31195;BME280;17819;36.316;-93.164;2022-10-16T04:04:03;114490.28;;;-146.31;49.12
31195;BME280;17819;36.316;-93.164;2022-10-16T04:06:07;114490.28;;;-146.31;48.57
31195;BME280;17819;36.316;-93.164;2022-10-16T04:08:11;114490.28;;;-146.31;48.31
31195;BME280;17819;36.316;-93.164;2022-10-16T04:10:15;114490.28;;;-146.31;48.07
31195;BME280;17819;36.316;-93.164;2022-10-16T04:12:19;114490.28;;;-146.31;48.32
31195;BME280;17819;36.316;-93.164;2022-10-16T04:14:22;114490.28;;;-146.31;48.03
31195;BME280;17819;36.316;-93.164;2022-10-16T04:16:26;114490.28;;;-146.31;47.95
31195;BME280;17819;36.316;-93.164;2022-10-16T04:18:30;114490.28;;;-146.31;48.01
31195;BME280;17819;36.316;-93.164;2022-10-16T04:20:33;114490.28;;;-146.31;48.76
31195;BME280;17819;36.316;-93.164;2022-10-16T04:22:37;114490.28;;;-146.31;49.26
31195;BME280;17819;36.316;-93.164;2022-10-16T04:24:42;114490.28;;;-146.31;49.40
31195;BME280;17819;36.316;-93.164;2022-10-16T04:26:45;114490.28;;;-146.31;49.66
31195;BME280;17819;36.316;-93.164;2022-10-16T04:28:49;114490.28;;;-146.31;49.90
31195;BME280;17819;36.316;-93.164;2022-10-16T04:30:53;114490.28;;;-146.31;49.31
31195;BME280;17819;36.316;-93.164;2022-10-16T04:32:57;114490.28;;;-146.31;49.55
31195;BME280;17819;36.316;-93.164;2022-10-16T04:35:05;114490.28;;;-146.31;49.64
31195;BME280;17819;36.316;-93.164;2022-10-16T04:37:09;114490.28;;;-146.31;50.72
31195;BME280;17819;36.316;-93.164;2022-10-16T04:39:12;114490.28;;;-146.31;50.56
31195;BME280;17819;36.316;-93.164;2022-10-16T04:41:16;114490.28;;;-146.31;51.50
31195;BME280;17819;36.316;-93.164;2022-10-16T04:43:19;114490.28;;;-146.31;52.04
31195;BME280;17819;36.316;-93.164;2022-10-16T04:45:23;114490.28;;;-146.31;52.10
31195;BME280;17819;36.316;-93.164;2022-10-16T04:47:27;114490.28;;;-146.31;53.36
31195;BME280;17819;36.316;-93.164;2022-10-16T04:49:31;114490.28;;;-146.31;53.00
31195;BME280;17819;36.316;-93.164;2022-10-16T04:51:35;114490.28;;;-146.31;54.03
31195;BME280;17819;36.316;-93.164;2022-10-16T04:53:38;114490.28;;;-146.31;57.62
31195;BME280;17819;36.316;-93.164;2022-10-16T04:55:42;114490.28;;;-146.31;60.45
31195;BME280;17819;36.316;-93.164;2022-10-16T04:57:46;114490.28;;;-146.31;65.88
31195;BME280;17819;36.316;-93.164;2022-10-16T04:59:50;114490.28;;;-146.31;66.07
31195;BME280;17819;36.316;-93.164;2022-10-16T05:01:53;114490.28;;;-146.31;75.80
31195;BME280;17819;36.316;-93.164;2022-10-16T05:03:57;114490.28;;;-146.31;81.56
31195;BME280;17819;36.316;-93.164;2022-10-16T05:06:00;114490.28;;;-146.31;85.26
31195;BME280;17819;36.316;-93.164;2022-10-16T05:08:04;114490.28;;;-146.31;92.54
31195;BME280;17819;36.316;-93.164;2022-10-16T05:10:07;114490.28;;;-146.31;100.00
31195;BME280;17819;36.316;-93.164;2022-10-16T05:12:11;114490.28;;;-146.31;100.00
31195;BME280;17819;36.316;-93.164;2022-10-16T05:14:14;114490.28;;;-146.31;100.00
31195;BME280;17819;36.316;-93.164;2022-10-16T05:16:18;114490.28;;;-146.31;100.00
31195;BME280;17819;36.316;-93.164;2022-10-16T05:18:22;114490.28;;;-146.31;100.00
31195;BME280;17819;36.316;-93.164;2022-10-16T05:20:25;114490.28;;;-146.31;100.00
31195;BME280;17819;36.316;-93.164;2022-10-16T05:22:31;114490.28;;;-146.31;100.00
31195;BME280;17819;36.316;-93.164;2022-10-16T05:24:35;114490.28;;;-146.31;100.00
31195;BME280;17819;36.316;-93.164;2022-10-16T05:26:39;114490.28;;;-146.31;100.00
31195;BME280;17819;36.316;-93.164;2022-10-16T05:28:42;114490.28;;;-146.31;100.00
31195;BME280;17819;36.316;-93.164;2022-10-16T05:30:46;114490.28;;;-146.31;100.00
31195;BME280;17819;36.316;-93.164;2022-10-16T05:32:50;114490.28;;;-146.31;100.00
31195;BME280;17819;36.316;-93.164;2022-10-16T05:34:53;114490.28;;;-146.31;100.00
31195;BME280;17819;36.316;-93.164;2022-10-16T05:36:57;114490.28;;;-146.31;100.00
31195;BME280;17819;36.316;-93.164;2022-10-16T05:39:01;114490.28;;;-146.31;100.00
31195;BME280;17819;36.316;-93.164;2022-10-16T05:41:05;114490.28;;;-146.31;100.00
31195;BME280;17819;36.316;-93.164;2022-10-16T05:43:10;114490.28;;;-146.31;100.00
31195;BME280;17819;36.316;-93.164;2022-10-16T05:45:14;114490.28;;;-146.31;100.00
31195;BME280;17819;36.316;-93.164;2022-10-16T05:47:17;114490.28;;;-146.31;100.00
31195;BME280;17819;36.316;-93.164;2022-10-16T05:49:24;114490.28;;;-146.31;100.00
31195;BME280;17819;36.316;-93.164;2022-10-16T05:51:27;114490.28;;;-146.31;100.00
31195;BME280;17819;36.316;-93.164;2022-10-16T05:53:32;114490.28;;;-146.31;100.00
31195;BME280;17819;36.316;-93.164;2022-10-16T05:55:35;114490.28;;;-146.31;100.00
31195;BME280;17819;36.316;-93.164;2022-10-16T05:57:39;114490.28;;;-146.31;100.00
31195;BME280;17819;36.316;-93.164;2022-10-16T05:59:43;114490.28;;;-146.31;100.00
31195;BME280;17819;36.316;-93.164;2022-10-16T06:01:46;114490.28;;;-146.31;100.00
31195;BME280;17819;36.316;-93.164;2022-10-16T06:03:51;114490.28;;;-146.31;100.00
31195;BME280;17819;36.316;-93.164;2022-10-16T06:05:55;114490.28;;;-146.31;100.00
31195;BME280;17819;36.316;-93.164;2022-10-16T06:07:58;114490.28;;;-146.31;100.00
31195;BME280;17819;36.316;-93.164;2022-10-16T06:10:02;114490.28;;;-146.31;100.00
31195;BME280;17819;36.316;-93.164;2022-10-16T06:12:07;114490.28;;;-146.31;100.00
31195;BME280;17819;36.316;-93.164;2022-10-16T06:14:11;114490.28;;;-146.31;100.00
31195;BME280;17819;36.316;-93.164;2022-10-16T06:16:14;114490.28;;;-146.31;100.00
31195;BME280;17819;36.316;-93.164;2022-10-16T06:18:19;114490.28;;;-146.31;100.00
31195;BME280;17819;36.316;-93.164;2022-10-16T06:20:22;114490.28;;;-146.31;100.00
31195;BME280;17819;36.316;-93.164;2022-10-16T06:22:26;114490.28;;;-146.31;100.00
31195;BME280;17819;36.316;-93.164;2022-10-16T06:24:30;114490.28;;;-146.31;100.00
31195;BME280;17819;36.316;-93.164;2022-10-16T06:26:33;114490.28;;;-146.31;100.00
31195;BME280;17819;36.316;-93.164;2022-10-16T06:28:37;114490.28;;;-146.31;100.00
31195;BME280;17819;36.316;-93.164;2022-10-16T06:30:41;114490.28;;;-146.31;100.00
31195;BME280;17819;36.316;-93.164;2022-10-16T06:32:46;114490.28;;;-146.31;100.00
31195;BME280;17819;36.316;-93.164;2022-10-16T06:34:50;114490.28;;;-146.31;100.00
31195;BME280;17819;36.316;-93.164;2022-10-16T06:36:53;114490.28;;;-146.31;100.00
31195;BME280;17819;36.316;-93.164;2022-10-16T06:39:00;114490.28;;;-146.31;100.00
31195;BME280;17819;36.316;-93.164;2022-10-16T06:41:05;114490.28;;;-146.31;100.00
31195;BME280;17819;36.316;-93.164;2022-10-16T06:43:09;114490.28;;;-146.31;100.00
31195;BME280;17819;36.316;-93.164;2022-10-16T06:45:16;114490.28;;;-146.31;100.00
31195;BME280;17819;36.316;-93.164;2022-10-16T06:47:24;114490.28;;;-146.31;100.00
31195;BME280;17819;36.316;-93.164;2022-10-16T06:49:28;114490.28;;;-146.31;100.00
31195;BME280;17819;36.316;-93.164;2022-10-16T06:51:32;114490.28;;;-146.31;100.00
31195;BME280;17819;36.316;-93.164;2022-10-16T06:53:59;114490.28;;;-146.31;100.00
31195;BME280;17819;36.316;-93.164;2022-10-16T06:56:09;114490.28;;;-146.31;100.00
31195;BME280;17819;36.316;-93.164;2022-10-16T06:58:13;114490.28;;;-146.31;100.00
31195;BME280;17819;36.316;-93.164;2022-10-16T07:03:05;114490.28;;;-146.31;100.00
31195;BME280;17819;36.316;-93.164;2022-10-16T07:05:08;114490.28;;;-146.31;100.00
31195;BME280;17819;36.316;-93.164;2022-10-16T07:07:12;114490.28;;;-146.31;100.00
31195;BME280;17819;36.316;-93.164;2022-10-16T07:09:16;114490.28;;;-146.31;100.00
31195;BME280;17819;36.316;-93.164;2022-10-16T07:11:20;114490.28;;;-146.31;100.00
31195;BME280;17819;36.316;-93.164;2022-10-16T07:13:24;114490.28;;;-146.31;100.00
31195;BME280;17819;36.316;-93.164;2022-10-16T07:15:28;114490.28;;;-146.31;100.00
31195;BME280;17819;36.316;-93.164;2022-10-16T07:17:32;114490.28;;;-146.31;100.00
31195;BME280;17819;36.316;-93.164;2022-10-16T07:19:36;114490.28;;;-146.31;100.00
31195;BME280;17819;36.316;-93.164;2022-10-16T07:21:40;114490.28;;;-146.31;100.00
31195;BME280;17819;36.316;-93.164;2022-10-16T07:23:44;114490.28;;;-146.31;100.00
31195;BME280;17819;36.316;-93.164;2022-10-16T07:25:53;114490.28;;;-146.31;100.00
31195;BME280;17819;36.316;-93.164;2022-10-16T07:27:56;114490.28;;;-146.31;100.00
31195;BME280;17819;36.316;-93.164;2022-10-16T07:30:00;114490.28;;;-146.31;100.00
31195;BME280;17819;36.316;-93.164;2022-10-16T07:32:09;114490.28;;;-146.31;100.00
31195;BME280;17819;36.316;-93.164;2022-10-16T07:34:13;114490.28;;;-146.31;100.00
31195;BME280;17819;36.316;-93.164;2022-10-16T07:36:18;114490.28;;;-146.31;100.00
31195;BME280;17819;36.316;-93.164;2022-10-16T07:38:22;114490.28;;;-146.31;98.75
31195;BME280;17819;36.316;-93.164;2022-10-16T07:40:26;114490.28;;;-146.31;97.05
31195;BME280;17819;36.316;-93.164;2022-10-16T07:42:30;114490.28;;;-146.31;100.00
31195;BME280;17819;36.316;-93.164;2022-10-16T07:44:33;114490.28;;;-146.31;98.03
31195;BME280;17819;36.316;-93.164;2022-10-16T07:46:37;114490.28;;;-146.31;97.32
31195;BME280;17819;36.316;-93.164;2022-10-16T07:48:41;114490.28;;;-146.31;100.00
31195;BME280;17819;36.316;-93.164;2022-10-16T07:50:48;114490.28;;;-146.31;100.00
31195;BME280;17819;36.316;-93.164;2022-10-16T07:52:52;114490.28;;;-146.31;100.00
31195;BME280;17819;36.316;-93.164;2022-10-16T07:54:55;114490.28;;;-146.31;100.00
31195;BME280;17819;36.316;-93.164;2022-10-16T07:56:59;114490.28;;;-146.31;99.71
31195;BME280;17819;36.316;-93.164;2022-10-16T07:59:03;114490.28;;;-146.31;100.00
31195;BME280;17819;36.316;-93.164;2022-10-16T08:01:11;114490.28;;;-146.31;100.00
31195;BME280;17819;36.316;-93.164;2022-10-16T08:03:14;114490.28;;;-146.31;100.00
31195;BME280;17819;36.316;-93.164;2022-10-16T08:05:18;114490.28;;;-146.31;100.00
31195;BME280;17819;36.316;-93.164;2022-10-16T08:07:22;114490.28;;;-146.31;100.00
31195;BME280;17819;36.316;-93.164;2022-10-16T08:09:26;114490.28;;;-146.31;100.00
